Positano Jet — IFTU — position and weather

sailwx.info

Track history (hours):
 
Tides and Currents Weather Stations Pressure Air Temp Water Temp Dewpoint Dewpoint Depression Visibility Wind Speed Wind Dir Waves Ship Positions

Positano Jet

Last reported at 2015-May-29 15:33 UTC. Time now 2015-May-29 16:25 UTC.
Position N 40°34' E 014°15'.

Length 23 m; draft 2 m.

Type: Ship. MMSI: 247160800.

Date/timePositionNaut miles runAvg speedWind from/ knotsBaromVisibWave heightAir tempDewpointWater temp
2015-May-29 15:33N 40°34' E 014°15'6 3.0
2015-May-29 13:32N 40°34' E 014°23'7 6.5
2015-May-29 12:30N 40°33' E 014°14'0 0.0
2015-May-29 11:33N 40°33' E 014°14'0 0.0
2015-May-29 10:33N 40°33' E 014°14'0 0.0
2015-May-29 09:33N 40°33' E 014°14'1110.8
2015-May-29 08:32N 40°37' E 014°28'1 0.0
2015-May-28 16:33N 40°37' E 014°29'1010.3
2015-May-28 15:33N 40°34' E 014°16'11 9.2
2015-May-28 14:24N 40°37' E 014°29'6 6.7
2015-May-28 13:33N 40°34' E 014°23'6 5.9
2015-May-28 12:33N 40°34' E 014°15'1111.2
2015-May-28 11:34N 40°42' E 014°26'2 2.2
2015-May-28 10:30N 40°43' E 014°28'8 7.9
2015-May-28 09:33N 40°38' E 014°21'6 6.1
2015-May-28 08:31N 40°37' E 014°29'0 0.0
2015-May-27 16:33N 40°37' E 014°29'9 9.4
2015-May-27 15:33N 40°34' E 014°18'10 9.5
2015-May-27 14:33N 40°37' E 014°29'5 4.7
2015-May-27 13:33N 40°35' E 014°24'8 7.7
2015-May-27 12:33N 40°33' E 014°14'0 0.0
2015-May-27 11:33N 40°33' E 014°14'0 0.0
2015-May-27 10:31N 40°33' E 014°14'0 0.0
2015-May-27 09:27N 40°33' E 014°14'1111.9
2015-May-27 08:33N 40°37' E 014°28'1 1.2
2015-May-27 07:26N 40°37' E 014°29'0 0.0
2015-May-26 16:33N 40°37' E 014°29'1110.9
2015-May-26 15:34N 40°34' E 014°15'1111.1
2015-May-26 14:34N 40°38' E 014°29'6 5.5
2015-May-26 13:33N 40°34' E 014°23'7 6.8
2015-May-26 12:33N 40°33' E 014°14'0 0.0
2015-May-26 11:33N 40°33' E 014°14'0 0.0
2015-May-26 10:33N 40°33' E 014°14'0 0.0
2015-May-26 09:33N 40°33' E 014°14'1211.4
2015-May-26 08:32N 40°37' E 014°29'8 7.8
2015-May-26 07:33N 40°34' E 014°20'6 0.4
2015-May-25 16:30N 40°37' E 014°27'1010.2
2015-May-25 15:34N 40°34' E 014°15'6 3.1
2015-May-25 13:32N 40°34' E 014°23'7 7.1
2015-May-25 12:33N 40°33' E 014°14'0 0.0
2015-May-25 11:33N 40°33' E 014°14'0 0.0
2015-May-25 10:33N 40°33' E 014°14'0 0.0
2015-May-25 09:33N 40°33' E 014°14'12 9.0
2015-May-25 08:14N 40°38' E 014°29'3 0.2
2015-May-24 16:27N 40°36' E 014°25'3 3.5
2015-May-24 15:31N 40°35' E 014°21'7 6.0
2015-May-24 14:26N 40°37' E 014°29'9 8.2
2015-May-24 13:23N 40°34' E 014°19'2 2.6
2015-May-24 12:33N 40°36' E 014°18'1111.1
2015-May-24 11:33N 40°43' E 014°28'0 0.0
2015-May-24 10:31N 40°43' E 014°28'1111.1
2015-May-24 09:31N 40°36' E 014°17'9 9.1
2015-May-24 08:32N 40°37' E 014°29'5 0.3
2015-May-23 13:30N 40°35' E 014°22'6 6.5
2015-May-23 12:33N 40°33' E 014°14'0 0.0
2015-May-23 11:33N 40°33' E 014°14'0 0.0
2015-May-23 10:33N 40°33' E 014°14'0 0.0
2015-May-23 09:33N 40°33' E 014°14'1111.0
2015-May-23 08:32N 40°37' E 014°28'6 0.3
2015-May-22 13:33N 40°34' E 014°21'5 5.3
2015-May-22 12:33N 40°33' E 014°14'0 0.0
2015-May-22 11:33N 40°33' E 014°14'0 0.0
2015-May-22 10:33N 40°33' E 014°14'0 0.0
2015-May-22 09:33N 40°33' E 014°14'12 9.3
2015-May-22 08:15N 40°38' E 014°29'1 0.1
2015-May-21 16:31N 40°37' E 014°28'1010.5
2015-May-21 15:33N 40°34' E 014°16'11 9.6
2015-May-21 14:25N 40°38' E 014°29'5 5.7
2015-May-21 13:33N 40°35' E 014°24'7 7.2
2015-May-21 12:33N 40°33' E 014°14'0 0.0
2015-May-21 11:33N 40°33' E 014°14'0 0.0
2015-May-21 10:29N 40°33' E 014°14'0 0.0
2015-May-21 09:34N 40°33' E 014°14'1110.9
2015-May-21 08:31N 40°37' E 014°29'1 0.7
2015-May-21 07:31N 40°37' E 014°29'3 0.2
2015-May-20 16:26N 40°36' E 014°25'8 8.6
2015-May-20 15:33N 40°34' E 014°16'6 2.8
2015-May-20 13:32N 40°34' E 014°23'7 7.1
2015-May-20 12:34N 40°33' E 014°14'0 0.0
2015-May-20 11:34N 40°33' E 014°14'0 0.0
2015-May-20 10:30N 40°33' E 014°14'0 0.0
2015-May-20 09:33N 40°33' E 014°14'1211.1
2015-May-20 08:30N 40°37' E 014°29'0 0.5
2015-May-20 07:33N 40°37' E 014°29'1 0.0
2015-May-19 16:33N 40°37' E 014°28'1110.7
2015-May-19 15:34N 40°34' E 014°15'  
Track history (hours):
 
Tides and Currents Weather Stations Pressure Air Temp Water Temp Dewpoint Dewpoint Depression Visibility Wind Speed Wind Dir Waves Ship Positions

Positano Jet

Last reported at 2015-May-29 15:33 UTC. Time now 2015-May-29 16:25 UTC.
Position N 40°34' E 014°15'.

Length 23 m; draft 2 m.

Type: Ship. MMSI: 247160800.

Date/timePositionNaut miles runAvg speedWind from/ knotsBaromVisibWave heightAir tempDewpointWater temp
2015-May-29 15:33N 40°34' E 014°15'6 3.0
2015-May-29 13:32N 40°34' E 014°23'7 6.5
2015-May-29 12:30N 40°33' E 014°14'0 0.0
2015-May-29 11:33N 40°33' E 014°14'0 0.0
2015-May-29 10:33N 40°33' E 014°14'0 0.0
2015-May-29 09:33N 40°33' E 014°14'1110.8
2015-May-29 08:32N 40°37' E 014°28'1 0.0
2015-May-28 16:33N 40°37' E 014°29'1010.3
2015-May-28 15:33N 40°34' E 014°16'11 9.2
2015-May-28 14:24N 40°37' E 014°29'6 6.7
2015-May-28 13:33N 40°34' E 014°23'6 5.9
2015-May-28 12:33N 40°34' E 014°15'1111.2
2015-May-28 11:34N 40°42' E 014°26'2 2.2
2015-May-28 10:30N 40°43' E 014°28'8 7.9
2015-May-28 09:33N 40°38' E 014°21'6 6.1
2015-May-28 08:31N 40°37' E 014°29'0 0.0
2015-May-27 16:33N 40°37' E 014°29'9 9.4
2015-May-27 15:33N 40°34' E 014°18'10 9.5
2015-May-27 14:33N 40°37' E 014°29'5 4.7
2015-May-27 13:33N 40°35' E 014°24'8 7.7
2015-May-27 12:33N 40°33' E 014°14'0 0.0
2015-May-27 11:33N 40°33' E 014°14'0 0.0
2015-May-27 10:31N 40°33' E 014°14'0 0.0
2015-May-27 09:27N 40°33' E 014°14'1111.9
2015-May-27 08:33N 40°37' E 014°28'1 1.2
2015-May-27 07:26N 40°37' E 014°29'0 0.0
2015-May-26 16:33N 40°37' E 014°29'1110.9
2015-May-26 15:34N 40°34' E 014°15'1111.1
2015-May-26 14:34N 40°38' E 014°29'6 5.5
2015-May-26 13:33N 40°34' E 014°23'7 6.8
2015-May-26 12:33N 40°33' E 014°14'0 0.0
2015-May-26 11:33N 40°33' E 014°14'0 0.0
2015-May-26 10:33N 40°33' E 014°14'0 0.0
2015-May-26 09:33N 40°33' E 014°14'1211.4
2015-May-26 08:32N 40°37' E 014°29'8 7.8
2015-May-26 07:33N 40°34' E 014°20'6 0.4
2015-May-25 16:30N 40°37' E 014°27'1010.2
2015-May-25 15:34N 40°34' E 014°15'6 3.1
2015-May-25 13:32N 40°34' E 014°23'7 7.1
2015-May-25 12:33N 40°33' E 014°14'0 0.0
2015-May-25 11:33N 40°33' E 014°14'0 0.0
2015-May-25 10:33N 40°33' E 014°14'0 0.0
2015-May-25 09:33N 40°33' E 014°14'12 9.0
2015-May-25 08:14N 40°38' E 014°29'3 0.2
2015-May-24 16:27N 40°36' E 014°25'3 3.5
2015-May-24 15:31N 40°35' E 014°21'7 6.0
2015-May-24 14:26N 40°37' E 014°29'9 8.2
2015-May-24 13:23N 40°34' E 014°19'2 2.6
2015-May-24 12:33N 40°36' E 014°18'1111.1
2015-May-24 11:33N 40°43' E 014°28'0 0.0
2015-May-24 10:31N 40°43' E 014°28'1111.1
2015-May-24 09:31N 40°36' E 014°17'9 9.1
2015-May-24 08:32N 40°37' E 014°29'5 0.3
2015-May-23 13:30N 40°35' E 014°22'6 6.5
2015-May-23 12:33N 40°33' E 014°14'0 0.0
2015-May-23 11:33N 40°33' E 014°14'0 0.0
2015-May-23 10:33N 40°33' E 014°14'0 0.0
2015-May-23 09:33N 40°33' E 014°14'1111.0
2015-May-23 08:32N 40°37' E 014°28'6 0.3
2015-May-22 13:33N 40°34' E 014°21'5 5.3
2015-May-22 12:33N 40°33' E 014°14'0 0.0
2015-May-22 11:33N 40°33' E 014°14'0 0.0
2015-May-22 10:33N 40°33' E 014°14'0 0.0
2015-May-22 09:33N 40°33' E 014°14'12 9.3
2015-May-22 08:15N 40°38' E 014°29'1 0.1
2015-May-21 16:31N 40°37' E 014°28'1010.5
2015-May-21 15:33N 40°34' E 014°16'11 9.6
2015-May-21 14:25N 40°38' E 014°29'5 5.7
2015-May-21 13:33N 40°35' E 014°24'7 7.2
2015-May-21 12:33N 40°33' E 014°14'0 0.0
2015-May-21 11:33N 40°33' E 014°14'0 0.0
2015-May-21 10:29N 40°33' E 014°14'0 0.0
2015-May-21 09:34N 40°33' E 014°14'1110.9
2015-May-21 08:31N 40°37' E 014°29'1 0.7
2015-May-21 07:31N 40°37' E 014°29'3 0.2
2015-May-20 16:26N 40°36' E 014°25'8 8.6
2015-May-20 15:33N 40°34' E 014°16'6 2.8
2015-May-20 13:32N 40°34' E 014°23'7 7.1
2015-May-20 12:34N 40°33' E 014°14'0 0.0
2015-May-20 11:34N 40°33' E 014°14'0 0.0
2015-May-20 10:30N 40°33' E 014°14'0 0.0
2015-May-20 09:33N 40°33' E 014°14'1211.1
2015-May-20 08:30N 40°37' E 014°29'0 0.5
2015-May-20 07:33N 40°37' E 014°29'1 0.0
2015-May-19 16:33N 40°37' E 014°28'1110.7
2015-May-19 15:34N 40°34' E 014°15'  

Dump ship's entire track history